ANZ725L NZWN-NZWB
Flight info
| Callsign | ANZ725L |
|---|---|
| Flight time | 0h 16m |
| Altitude | 8000 |
| Route | AVPOD |
| Aircraft | DH8C/L-SDFGRWZ/S |
Departure
| Time | 2026-05-05 09:32 |
|---|---|
| Airport | Wellington International Airport (NZWN) |
Arrival
| Time | 2026-05-05 09:48 |
|---|---|
| Airport | Woodbourne Airport (NZWB) |
| Time | Latitude | Longitude | Altitude | Speed | Heading |
|---|---|---|---|---|---|
| 2026-05-05 09:25 | -41.33122 | 174.81049 | 29 ft | 0 kts | 0° |
| 2026-05-05 09:29 | -41.33113 | 174.81047 | 29 ft | 3 kts | 347° |
| 2026-05-05 09:29 | -41.33104 | 174.81012 | 28 ft | 7 kts | 233° |
| 2026-05-05 09:29 | -41.33155 | 174.80981 | 28 ft | 8 kts | 183° |
| 2026-05-05 09:30 | -41.33226 | 174.80974 | 29 ft | 9 kts | 196° |
| 2026-05-05 09:30 | -41.33235 | 174.80887 | 29 ft | 8 kts | 276° |
| 2026-05-05 09:30 | -41.33245 | 174.80789 | 29 ft | 13 kts | 220° |
| 2026-05-05 09:30 | -41.33360 | 174.80774 | 27 ft | 20 kts | 182° |
| 2026-05-05 09:31 | -41.33488 | 174.80765 | 23 ft | 10 kts | 183° |
| 2026-05-05 09:31 | -41.33561 | 174.80725 | 20 ft | 15 kts | 234° |
| 2026-05-05 09:31 | -41.33548 | 174.80633 | 19 ft | 9 kts | 353° |
| 2026-05-05 09:31 | -41.33487 | 174.80637 | 21 ft | 8 kts | 3° |
| 2026-05-05 09:32 | -41.33298 | 174.80649 | 27 ft | 55 kts | 2° |
| 2026-05-05 09:32 | -41.32760 | 174.80685 | 19 ft | 94 kts | 6° |
| 2026-05-05 09:32 | -41.32066 | 174.80749 | 260 ft | 104 kts | 6° |
| 2026-05-05 09:32 | -41.31292 | 174.80820 | 683 ft | 118 kts | 2° |
| 2026-05-05 09:33 | -41.30455 | 174.80873 | 1142 ft | 127 kts | 1° |
| 2026-05-05 09:33 | -41.29540 | 174.80933 | 1586 ft | 137 kts | 359° |
| 2026-05-05 09:33 | -41.28560 | 174.80997 | 2019 ft | 145 kts | 359° |
| 2026-05-05 09:33 | -41.27674 | 174.81049 | 2383 ft | 151 kts | 357° |
| 2026-05-05 09:34 | -41.26713 | 174.80541 | 2746 ft | 159 kts | 316° |
| 2026-05-05 09:34 | -41.26393 | 174.79111 | 3141 ft | 177 kts | 271° |
| 2026-05-05 09:34 | -41.26844 | 174.77547 | 3544 ft | 183 kts | 262° |
| 2026-05-05 09:34 | -41.26985 | 174.75900 | 3959 ft | 181 kts | 271° |
| 2026-05-05 09:35 | -41.27159 | 174.74205 | 4365 ft | 186 kts | 268° |
| 2026-05-05 09:35 | -41.27570 | 174.70711 | 5352 ft | 194 kts | 266° |
| 2026-05-05 09:35 | -41.27788 | 174.68936 | 5906 ft | 195 kts | 266° |
| 2026-05-05 09:36 | -41.28006 | 174.67157 | 6439 ft | 198 kts | 266° |
| 2026-05-05 09:36 | -41.28226 | 174.65352 | 6970 ft | 201 kts | 266° |
| 2026-05-05 09:36 | -41.28451 | 174.63516 | 7501 ft | 203 kts | 266° |
| 2026-05-05 09:36 | -41.28674 | 174.61675 | 7948 ft | 209 kts | 265° |
| 2026-05-05 09:37 | -41.28918 | 174.59645 | 8001 ft | 232 kts | 265° |
| 2026-05-05 09:37 | -41.29184 | 174.57459 | 8002 ft | 251 kts | 265° |
| 2026-05-05 09:37 | -41.29474 | 174.55086 | 7990 ft | 267 kts | 264° |
| 2026-05-05 09:37 | -41.29779 | 174.52586 | 7982 ft | 273 kts | 264° |
| 2026-05-05 09:38 | -41.30080 | 174.50143 | 7964 ft | 263 kts | 264° |
| 2026-05-05 09:38 | -41.30367 | 174.47780 | 7963 ft | 259 kts | 265° |
| 2026-05-05 09:38 | -41.30649 | 174.45432 | 7971 ft | 258 kts | 264° |
| 2026-05-05 09:38 | -41.30929 | 174.43092 | 7969 ft | 258 kts | 264° |
| 2026-05-05 09:39 | -41.31213 | 174.40727 | 7966 ft | 258 kts | 264° |
| 2026-05-05 09:39 | -41.31497 | 174.38359 | 7960 ft | 259 kts | 264° |
| 2026-05-05 09:39 | -41.31779 | 174.36012 | 7959 ft | 258 kts | 265° |
| 2026-05-05 09:39 | -41.32409 | 174.33760 | 7922 ft | 266 kts | 238° |
| 2026-05-05 09:40 | -41.33862 | 174.32254 | 7960 ft | 270 kts | 211° |
| 2026-05-05 09:40 | -41.35491 | 174.31029 | 7967 ft | 268 kts | 215° |
| 2026-05-05 09:40 | -41.37094 | 174.29718 | 7943 ft | 268 kts | 215° |
| 2026-05-05 09:40 | -41.38652 | 174.28412 | 7672 ft | 260 kts | 216° |
| 2026-05-05 09:41 | -41.40136 | 174.27159 | 7295 ft | 251 kts | 216° |
| 2026-05-05 09:41 | -41.41584 | 174.25929 | 6952 ft | 241 kts | 217° |
| 2026-05-05 09:41 | -41.42975 | 174.24745 | 6628 ft | 238 kts | 217° |
| 2026-05-05 09:41 | -41.44370 | 174.23557 | 6307 ft | 236 kts | 217° |
| 2026-05-05 09:42 | -41.45744 | 174.22385 | 5990 ft | 234 kts | 217° |
| 2026-05-05 09:42 | -41.47094 | 174.21236 | 5664 ft | 232 kts | 217° |
| 2026-05-05 09:42 | -41.48447 | 174.20077 | 5340 ft | 230 kts | 218° |
| 2026-05-05 09:42 | -41.49396 | 174.18453 | 4983 ft | 218 kts | 258° |
| 2026-05-05 09:43 | -41.49561 | 174.16495 | 4688 ft | 211 kts | 270° |
| 2026-05-05 09:43 | -41.49692 | 174.14546 | 4359 ft | 210 kts | 269° |
| 2026-05-05 09:43 | -41.49830 | 174.12640 | 4033 ft | 208 kts | 269° |
| 2026-05-05 09:43 | -41.49976 | 174.10716 | 3719 ft | 204 kts | 269° |
| 2026-05-05 09:44 | -41.50120 | 174.08905 | 3445 ft | 193 kts | 268° |
| 2026-05-05 09:44 | -41.50254 | 174.07161 | 3098 ft | 186 kts | 269° |
| 2026-05-05 09:44 | -41.50380 | 174.05571 | 2775 ft | 161 kts | 269° |
| 2026-05-05 09:44 | -41.50495 | 174.04170 | 2413 ft | 144 kts | 269° |
| 2026-05-05 09:45 | -41.50643 | 174.02907 | 2082 ft | 132 kts | 267° |
| 2026-05-05 09:45 | -41.50776 | 174.01706 | 1847 ft | 139 kts | 268° |
| 2026-05-05 09:45 | -41.50884 | 174.00352 | 1820 ft | 152 kts | 270° |
| 2026-05-05 09:45 | -41.50976 | 173.98938 | 1657 ft | 154 kts | 268° |
| 2026-05-05 09:46 | -41.51121 | 173.97553 | 1486 ft | 142 kts | 266° |
| 2026-05-05 09:46 | -41.51252 | 173.96333 | 1294 ft | 123 kts | 267° |
| 2026-05-05 09:46 | -41.51345 | 173.95265 | 1155 ft | 115 kts | 270° |
| 2026-05-05 09:46 | -41.51400 | 173.94163 | 1059 ft | 120 kts | 272° |
| 2026-05-05 09:47 | -41.51455 | 173.93053 | 905 ft | 118 kts | 270° |
| 2026-05-05 09:47 | -41.51511 | 173.91994 | 736 ft | 112 kts | 272° |
| 2026-05-05 09:47 | -41.51564 | 173.90961 | 606 ft | 109 kts | 272° |
| 2026-05-05 09:47 | -41.51629 | 173.89964 | 445 ft | 107 kts | 271° |
| 2026-05-05 09:48 | -41.51683 | 173.88983 | 313 ft | 108 kts | 270° |
| 2026-05-05 09:48 | -41.51735 | 173.87972 | 174 ft | 109 kts | 271° |
| 2026-05-05 09:48 | -41.51781 | 173.87033 | 109 ft | 77 kts | 269° |
| 2026-05-05 09:48 | -41.51804 | 173.86604 | 109 ft | 24 kts | 266° |
| 2026-05-05 09:49 | -41.51816 | 173.86386 | 109 ft | 14 kts | 269° |
| 2026-05-05 09:49 | -41.51813 | 173.86278 | 109 ft | 8 kts | 236° |
| 2026-05-05 09:49 | -41.51821 | 173.86348 | 109 ft | 12 kts | 82° |
| 2026-05-05 09:49 | -41.51811 | 173.86479 | 109 ft | 15 kts | 87° |
| 2026-05-05 09:50 | -41.51804 | 173.86627 | 109 ft | 17 kts | 85° |
| 2026-05-05 09:50 | -41.51791 | 173.86800 | 109 ft | 16 kts | 87° |
| 2026-05-05 09:50 | -41.51747 | 173.86836 | 109 ft | 7 kts | 353° |
| 2026-05-05 09:50 | -41.51695 | 173.86830 | 109 ft | 8 kts | 355° |
| 2026-05-05 09:51 | -41.51633 | 173.86824 | 109 ft | 9 kts | 356° |
| 2026-05-05 09:51 | -41.51565 | 173.86819 | 109 ft | 8 kts | 358° |
| 2026-05-05 09:51 | -41.51517 | 173.86818 | 109 ft | 5 kts | 19° |
| 2026-05-05 09:51 | -41.51497 | 173.86822 | 109 ft | 2 kts | 315° |
| 2026-05-05 09:52 | -41.51487 | 173.86797 | 109 ft | 3 kts | 298° |
| 2026-05-05 09:52 | -41.51479 | 173.86781 | 110 ft | 1 kts | 317° |
| 2026-05-05 09:52 | -41.51474 | 173.86781 | 109 ft | 0 kts | 31° |
| 2026-05-05 09:52 | -41.51472 | 173.86784 | 109 ft | 0 kts | 72° |